createdAt,value
2023-05-06T00:00:32.553Z,58.12
2023-05-06T00:01:34.280Z,57.80
2023-05-06T00:02:36.128Z,58.31
2023-05-06T00:03:38.010Z,57.85
2023-05-06T00:04:41.123Z,57.79
2023-05-06T00:05:43.533Z,56.63
2023-05-06T00:06:45.232Z,56.59
2023-05-06T00:07:46.962Z,56.97
2023-05-06T00:08:48.701Z,56.65
2023-05-06T00:09:50.527Z,56.49
2023-05-06T00:10:52.230Z,56.58
2023-05-06T00:11:53.912Z,56.28
2023-05-06T00:12:55.725Z,55.75
2023-05-06T00:13:57.502Z,55.91
2023-05-06T00:14:59.257Z,56.20
2023-05-06T00:16:01.171Z,56.32
2023-05-06T00:17:02.938Z,56.70
2023-05-06T00:18:05.012Z,55.63
2023-05-06T00:19:07.086Z,56.81
2023-05-06T00:20:10.466Z,56.87
2023-05-06T00:21:12.173Z,57.17
2023-05-06T00:22:13.908Z,56.46
2023-05-06T00:23:15.744Z,57.13
2023-05-06T00:24:17.468Z,56.72
2023-05-06T00:25:19.697Z,56.65
2023-05-06T00:26:21.398Z,56.16
2023-05-06T00:27:23.107Z,56.37
2023-05-06T00:28:24.932Z,56.48
2023-05-06T00:29:26.694Z,57.64
2023-05-06T00:30:28.595Z,56.86
2023-05-06T00:31:30.336Z,57.28
2023-05-06T00:32:32.075Z,57.13
2023-05-06T00:33:33.849Z,57.31
2023-05-06T00:34:35.620Z,57.59
2023-05-06T00:35:37.368Z,58.02
2023-05-06T00:36:39.127Z,57.66
2023-05-06T00:37:40.981Z,57.37
2023-05-06T00:38:42.805Z,57.88
2023-05-06T00:39:44.502Z,58.16
2023-05-06T00:40:46.279Z,58.02
2023-05-06T00:41:48.124Z,57.98
2023-05-06T00:42:49.842Z,57.85
2023-05-06T00:43:51.564Z,58.26
2023-05-06T00:44:53.287Z,58.20
2023-05-06T00:45:55.183Z,58.70
2023-05-06T00:46:57.295Z,58.46
2023-05-06T00:47:59.332Z,58.62
2023-05-06T00:49:01.174Z,58.54
2023-05-06T00:50:03.420Z,58.85
2023-05-06T00:51:05.266Z,59.07
2023-05-06T00:52:07.554Z,59.20
2023-05-06T00:53:10.733Z,59.61
2023-05-06T00:54:12.620Z,59.28
2023-05-06T00:55:15.504Z,59.45
2023-05-06T00:56:20.892Z,59.33
2023-05-06T00:57:23.570Z,59.49
2023-05-06T00:58:25.355Z,60.05
2023-05-06T00:59:27.466Z,59.69
2023-05-06T01:00:29.238Z,60.44
2023-05-06T01:01:31.679Z,60.60
2023-05-06T01:02:45.814Z,60.08
2023-05-06T01:03:49.326Z,60.53
2023-05-06T01:04:51.816Z,60.77
2023-05-06T01:06:00.231Z,60.64
2023-05-06T01:07:25.602Z,61.34
2023-05-06T01:08:35.960Z,61.29
2023-05-06T01:10:09.924Z,61.22
2023-05-06T01:11:36.809Z,61.93
2023-05-06T01:12:51.985Z,62.07
2023-05-06T01:14:02.425Z,62.13
2023-05-06T01:15:26.512Z,62.35
2023-05-06T01:16:31.012Z,62.29
2023-05-06T01:17:35.823Z,62.75
2023-05-06T01:18:39.122Z,63.07
2023-05-06T01:19:49.754Z,63.19
2023-05-06T01:20:53.826Z,63.16
2023-05-06T01:22:00.395Z,63.06
2023-05-06T01:23:02.845Z,62.92
2023-05-06T01:24:04.883Z,62.98
2023-05-06T01:25:07.083Z,62.68
2023-05-06T01:26:08.892Z,63.16
2023-05-06T01:27:12.654Z,63.20
2023-05-06T01:28:14.448Z,63.28
2023-05-06T01:29:16.213Z,63.17
2023-05-06T01:30:20.413Z,62.68
2023-05-06T01:31:26.982Z,62.93
2023-05-06T01:32:51.070Z,63.03
2023-05-06T01:34:28.085Z,62.88
2023-05-06T01:35:41.193Z,63.00
2023-05-06T01:37:10.998Z,63.28
2023-05-06T01:38:36.803Z,63.50
2023-05-06T01:39:41.657Z,63.48
2023-05-06T01:40:48.092Z,63.37
2023-05-06T01:41:51.609Z,63.10
2023-05-06T01:42:53.909Z,63.33
2023-05-06T01:43:59.328Z,63.60
2023-05-06T01:45:02.810Z,63.70
2023-05-06T01:46:06.473Z,63.50
2023-05-06T01:47:09.196Z,63.88
2023-05-06T01:48:11.748Z,63.38
2023-05-06T01:49:16.015Z,63.54
2023-05-06T01:50:18.007Z,63.81
2023-05-06T01:51:21.868Z,63.59
2023-05-06T01:52:23.744Z,63.84
2023-05-06T01:53:25.428Z,63.61
2023-05-06T01:54:27.093Z,63.79
2023-05-06T01:55:29.140Z,63.82
2023-05-06T01:56:31.202Z,64.15
2023-05-06T01:57:32.969Z,63.75
2023-05-06T01:58:34.692Z,63.74
2023-05-06T01:59:36.615Z,63.54
2023-05-06T02:00:39.683Z,63.38
2023-05-06T02:01:41.444Z,63.33
2023-05-06T02:02:43.255Z,63.32
2023-05-06T02:03:45.335Z,63.43
2023-05-06T02:04:47.156Z,63.79
2023-05-06T02:05:48.851Z,63.49
2023-05-06T02:06:50.889Z,63.30
2023-05-06T02:07:52.678Z,63.26
2023-05-06T02:08:54.417Z,62.98
2023-05-06T02:09:56.119Z,62.89
2023-05-06T02:10:57.910Z,63.04
2023-05-06T02:11:59.672Z,62.82
2023-05-06T02:13:01.587Z,62.63
2023-05-06T02:14:03.624Z,63.03
2023-05-06T02:15:05.862Z,63.30
2023-05-06T02:16:08.976Z,62.85
2023-05-06T02:17:10.774Z,62.74
2023-05-06T02:18:12.554Z,62.65
2023-05-06T02:19:14.249Z,62.89
2023-05-06T02:20:15.937Z,62.68
2023-05-06T02:21:17.718Z,62.55
2023-05-06T02:22:19.421Z,62.12
2023-05-06T02:23:21.155Z,62.46
2023-05-06T02:24:22.885Z,62.10
2023-05-06T02:25:24.586Z,62.93
2023-05-06T02:26:26.688Z,63.15
2023-05-06T02:27:28.456Z,62.81
2023-05-06T02:28:30.410Z,62.86
2023-05-06T02:29:32.196Z,63.32
2023-05-06T02:30:34.698Z,63.43
2023-05-06T02:31:36.522Z,63.15
2023-05-06T02:32:38.311Z,63.05
2023-05-06T02:33:40.074Z,63.18
2023-05-06T02:34:41.799Z,63.17
2023-05-06T02:35:43.502Z,63.63
2023-05-06T02:36:45.194Z,63.46
2023-05-06T02:37:46.902Z,63.87
2023-05-06T02:38:48.622Z,63.18
2023-05-06T02:39:50.349Z,64.18
2023-05-06T02:40:52.108Z,63.88
2023-05-06T02:41:53.860Z,63.77
2023-05-06T02:42:55.758Z,64.77
2023-05-06T02:43:57.505Z,64.63
2023-05-06T02:44:59.246Z,63.83
2023-05-06T02:46:04.021Z,63.15
2023-05-06T02:47:05.780Z,62.66
2023-05-06T02:48:07.546Z,62.33
2023-05-06T02:49:09.547Z,62.59
2023-05-06T02:50:11.349Z,62.83
2023-05-06T02:51:13.198Z,62.70
2023-05-06T02:52:14.904Z,62.59
2023-05-06T02:53:16.610Z,63.58
2023-05-06T02:54:18.310Z,63.68
2023-05-06T02:55:20.046Z,63.21
2023-05-06T02:56:21.767Z,62.31
2023-05-06T02:57:23.460Z,62.38
2023-05-06T02:58:26.330Z,62.82
2023-05-06T02:59:28.100Z,63.37
2023-05-06T03:00:30.162Z,64.02
2023-05-06T03:01:31.911Z,63.80
2023-05-06T03:02:33.797Z,63.52
2023-05-06T03:03:36.109Z,63.34
2023-05-06T03:04:37.819Z,63.78
2023-05-06T03:05:39.568Z,64.15
2023-05-06T03:06:41.269Z,63.43
2023-05-06T03:07:42.974Z,64.11
2023-05-06T03:08:45.197Z,63.48
2023-05-06T03:09:46.871Z,63.33
2023-05-06T03:10:48.605Z,63.74
2023-05-06T03:11:50.408Z,63.94
2023-05-06T03:12:52.124Z,63.63
2023-05-06T03:13:53.868Z,63.61
2023-05-06T03:14:55.555Z,63.87
2023-05-06T03:15:57.336Z,63.85
2023-05-06T03:16:59.263Z,64.62
2023-05-06T03:18:01.146Z,64.47
2023-05-06T03:19:03.969Z,64.83
2023-05-06T03:20:08.881Z,64.70
2023-05-06T03:21:11.887Z,64.77
2023-05-06T03:22:13.595Z,65.11
2023-05-06T03:23:15.751Z,65.50
2023-05-06T03:24:17.460Z,65.38
2023-05-06T03:25:19.194Z,64.92
2023-05-06T03:26:21.583Z,65.22
2023-05-06T03:27:23.288Z,65.21
2023-05-06T03:28:24.988Z,65.35
2023-05-06T03:29:26.833Z,64.71
2023-05-06T03:30:28.552Z,64.94
2023-05-06T03:31:30.277Z,64.94
2023-05-06T03:32:32.000Z,64.82
2023-05-06T03:33:33.735Z,64.41
2023-05-06T03:34:36.134Z,64.55
2023-05-06T03:35:37.976Z,64.41
2023-05-06T03:36:39.675Z,64.49
2023-05-06T03:37:41.478Z,64.49
2023-05-06T03:38:43.177Z,63.88
2023-05-06T03:39:45.054Z,63.88
2023-05-06T03:40:46.762Z,63.82
2023-05-06T03:41:48.543Z,63.62
2023-05-06T03:42:50.404Z,63.31
2023-05-06T03:43:52.794Z,63.48
2023-05-06T03:44:54.585Z,64.69
2023-05-06T03:45:56.372Z,64.14
2023-05-06T03:46:58.083Z,64.67
2023-05-06T03:47:59.836Z,64.65
2023-05-06T03:49:02.978Z,64.23
2023-05-06T03:50:05.081Z,63.69
2023-05-06T03:51:06.936Z,63.56
2023-05-06T03:52:08.719Z,62.97
2023-05-06T03:53:10.744Z,62.52
2023-05-06T03:54:12.478Z,62.51
2023-05-06T03:55:14.297Z,63.38
2023-05-06T03:56:18.377Z,63.37
2023-05-06T03:57:20.094Z,63.52
2023-05-06T03:58:21.833Z,62.92
2023-05-06T03:59:23.535Z,63.45
2023-05-06T04:00:26.097Z,63.75
2023-05-06T04:01:27.854Z,63.48
2023-05-06T04:02:29.656Z,62.22
2023-05-06T04:03:31.633Z,62.05
2023-05-06T04:04:34.544Z,61.56
2023-05-06T04:05:36.401Z,62.00
2023-05-06T04:06:38.218Z,62.27
2023-05-06T04:07:39.982Z,61.86
2023-05-06T04:08:41.739Z,61.70
2023-05-06T04:09:43.652Z,60.87
2023-05-06T04:10:45.797Z,61.01
2023-05-06T04:11:47.510Z,60.21
2023-05-06T04:12:49.237Z,60.17
2023-05-06T04:13:51.041Z,58.93
2023-05-06T04:14:52.777Z,56.94
2023-05-06T04:15:54.484Z,56.28
2023-05-06T04:16:56.271Z,56.18
2023-05-06T04:17:58.012Z,56.07
2023-05-06T04:18:59.763Z,55.40
2023-05-06T04:20:07.140Z,55.95
2023-05-06T04:21:08.908Z,55.76
2023-05-06T04:22:10.623Z,56.92
2023-05-06T04:23:12.313Z,56.60
2023-05-06T04:24:16.031Z,56.88
2023-05-06T04:25:19.706Z,55.30
2023-05-06T04:26:21.772Z,54.58
2023-05-06T04:27:24.890Z,53.49
2023-05-06T04:28:26.618Z,53.33
2023-05-06T04:29:28.326Z,53.28
2023-05-06T04:30:30.366Z,52.63
2023-05-06T04:31:33.129Z,53.06
2023-05-06T04:32:34.938Z,52.33
2023-05-06T04:33:36.690Z,50.88
2023-05-06T04:34:38.458Z,51.16
2023-05-06T04:35:40.625Z,51.30
2023-05-06T04:36:42.319Z,50.09
2023-05-06T04:37:44.497Z,49.94
2023-05-06T04:38:47.399Z,49.61
2023-05-06T04:39:49.107Z,49.76
2023-05-06T04:40:50.834Z,49.32
2023-05-06T04:41:52.629Z,49.78
2023-05-06T04:42:54.438Z,49.39
2023-05-06T04:43:56.312Z,49.21
2023-05-06T04:44:59.426Z,48.91
2023-05-06T04:46:01.660Z,48.99
2023-05-06T04:47:03.423Z,48.90
2023-05-06T04:48:05.647Z,48.92
2023-05-06T04:49:07.474Z,48.25
2023-05-06T04:50:09.692Z,47.68
2023-05-06T04:51:11.771Z,47.00
2023-05-06T04:52:13.518Z,47.77
2023-05-06T04:53:15.941Z,48.16
2023-05-06T04:54:17.689Z,47.90
2023-05-06T04:55:19.505Z,46.89
2023-05-06T04:56:21.443Z,46.13
2023-05-06T04:57:23.131Z,45.88
2023-05-06T04:58:24.843Z,46.04
2023-05-06T04:59:26.820Z,46.37
2023-05-06T05:00:28.636Z,45.34
2023-05-06T05:01:31.198Z,45.97
2023-05-06T05:02:33.184Z,46.59
2023-05-06T05:03:35.459Z,45.43
2023-05-06T05:04:37.236Z,45.08
2023-05-06T05:05:39.015Z,45.41
2023-05-06T05:06:40.864Z,45.63
2023-05-06T05:07:42.629Z,45.57
2023-05-06T05:08:44.319Z,44.52
2023-05-06T05:09:46.061Z,43.50
2023-05-06T05:10:47.950Z,45.02
2023-05-06T05:11:49.649Z,45.08
2023-05-06T05:12:51.436Z,44.98
2023-05-06T05:13:54.809Z,44.26
2023-05-06T05:14:58.331Z,44.38
2023-05-06T05:16:00.026Z,43.71
2023-05-06T05:17:01.792Z,43.55
2023-05-06T05:18:03.621Z,44.04
2023-05-06T05:19:08.941Z,42.32
2023-05-06T05:20:11.400Z,42.38
2023-05-06T05:21:13.243Z,41.41
2023-05-06T05:22:14.953Z,41.75
2023-05-06T05:23:16.637Z,41.30
2023-05-06T05:24:18.334Z,40.61
2023-05-06T05:25:20.109Z,41.05
2023-05-06T05:26:21.886Z,41.59
2023-05-06T05:27:23.849Z,42.21
2023-05-06T05:28:25.786Z,41.57
2023-05-06T05:29:27.459Z,42.46
2023-05-06T05:30:29.172Z,43.17
2023-05-06T05:31:31.535Z,43.10
2023-05-06T05:32:33.350Z,43.01
2023-05-06T05:33:35.226Z,42.92
2023-05-06T05:34:37.057Z,42.68
2023-05-06T05:35:38.899Z,41.88
2023-05-06T05:36:40.880Z,41.80
2023-05-06T05:37:42.562Z,42.04
2023-05-06T05:38:44.265Z,42.83
2023-05-06T05:39:46.021Z,43.02
2023-05-06T05:40:47.790Z,41.66
2023-05-06T05:41:49.744Z,41.94
2023-05-06T05:42:51.461Z,43.97
2023-05-06T05:43:53.195Z,42.96
2023-05-06T05:44:54.933Z,43.75
2023-05-06T05:45:57.086Z,41.98
2023-05-06T05:46:58.778Z,41.34
2023-05-06T05:48:00.613Z,40.76
2023-05-06T05:49:02.380Z,40.75
2023-05-06T05:50:04.517Z,41.04
2023-05-06T05:51:06.358Z,41.05
2023-05-06T05:52:10.644Z,41.11
2023-05-06T05:53:12.350Z,41.27
2023-05-06T05:54:14.973Z,41.52
2023-05-06T05:55:16.803Z,40.82
2023-05-06T05:56:18.560Z,40.88
2023-05-06T05:57:20.360Z,40.82
2023-05-06T05:58:22.078Z,41.54
2023-05-06T05:59:23.871Z,42.26
2023-05-06T06:00:25.697Z,41.75
2023-05-06T06:01:27.564Z,40.89
2023-05-06T06:02:29.392Z,42.09
2023-05-06T06:03:31.363Z,42.80
2023-05-06T06:04:33.273Z,42.29
2023-05-06T06:05:35.063Z,39.71
2023-05-06T06:06:36.868Z,39.66
2023-05-06T06:07:38.683Z,38.43
2023-05-06T06:08:40.900Z,39.93
2023-05-06T06:09:42.644Z,39.18
2023-05-06T06:10:44.382Z,36.66
2023-05-06T06:11:46.327Z,35.24
2023-05-06T06:12:48.037Z,36.57
2023-05-06T06:13:49.748Z,36.06
2023-05-06T06:14:51.442Z,36.15
2023-05-06T06:15:53.428Z,35.06
2023-05-06T06:16:55.842Z,33.30
2023-05-06T06:17:57.647Z,34.86
2023-05-06T06:18:59.405Z,34.82
2023-05-06T06:20:01.467Z,33.71
2023-05-06T06:21:03.362Z,34.87
2023-05-06T06:22:05.068Z,34.09
2023-05-06T06:23:06.749Z,33.75
2023-05-06T06:24:08.529Z,32.70
2023-05-06T06:25:10.848Z,32.10
2023-05-06T06:26:12.817Z,32.23
2023-05-06T06:27:14.579Z,32.05
2023-05-06T06:28:16.347Z,31.35
2023-05-06T06:29:18.077Z,31.48
2023-05-06T06:30:19.843Z,31.89
2023-05-06T06:31:21.558Z,31.89
2023-05-06T06:32:23.325Z,31.25
2023-05-06T06:33:25.161Z,30.53
2023-05-06T06:34:26.999Z,31.37
2023-05-06T06:35:28.803Z,30.86
2023-05-06T06:36:30.540Z,30.90
2023-05-06T06:37:32.237Z,30.58
2023-05-06T06:38:33.981Z,30.10
2023-05-06T06:39:35.954Z,29.58
2023-05-06T06:40:37.697Z,30.50
2023-05-06T06:41:39.721Z,30.71
2023-05-06T06:42:41.436Z,29.35
2023-05-06T06:43:43.187Z,30.18
2023-05-06T06:44:44.890Z,30.16
2023-05-06T06:45:49.727Z,29.36
2023-05-06T06:46:51.542Z,29.80
2023-05-06T06:47:53.283Z,28.91
2023-05-06T06:48:55.313Z,29.57
2023-05-06T06:49:56.987Z,28.91
2023-05-06T06:50:58.778Z,28.76
2023-05-06T06:52:00.529Z,28.21
2023-05-06T06:53:04.176Z,28.50
2023-05-06T06:54:07.235Z,27.90
2023-05-06T06:55:09.753Z,27.44
2023-05-06T06:56:14.297Z,26.15
2023-05-06T06:57:15.982Z,25.47
2023-05-06T06:58:17.711Z,25.76
2023-05-06T06:59:19.468Z,25.70
2023-05-06T07:00:21.215Z,27.32
2023-05-06T07:01:22.990Z,25.04
2023-05-06T07:02:24.730Z,26.53
2023-05-06T07:03:26.413Z,24.30
2023-05-06T07:04:28.152Z,24.84
2023-05-06T07:05:29.975Z,26.06
2023-05-06T07:06:31.671Z,26.57
2023-05-06T07:07:33.369Z,26.69
2023-05-06T07:08:35.131Z,26.44
2023-05-06T07:09:38.357Z,27.13
2023-05-06T07:10:41.845Z,25.45
2023-05-06T07:11:43.573Z,27.06
2023-05-06T07:12:45.347Z,27.61
2023-05-06T07:13:47.037Z,26.39
2023-05-06T07:14:48.730Z,26.67
2023-05-06T07:15:50.506Z,24.97
2023-05-06T07:16:52.272Z,25.44
2023-05-06T07:17:54.154Z,26.65
2023-05-06T07:18:55.849Z,25.72
2023-05-06T07:19:57.535Z,24.90
2023-05-06T07:21:01.850Z,24.95
2023-05-06T07:22:03.675Z,25.70
2023-05-06T07:23:05.492Z,26.12
2023-05-06T07:24:07.655Z,27.06
2023-05-06T07:25:09.825Z,25.47
2023-05-06T07:26:11.745Z,25.44
2023-05-06T07:27:13.484Z,27.37
2023-05-06T07:28:15.785Z,25.74
2023-05-06T07:29:17.553Z,24.85
2023-05-06T07:30:22.419Z,26.09
2023-05-06T07:31:25.244Z,25.69
2023-05-06T07:32:27.014Z,23.91
2023-05-06T07:33:28.837Z,25.19
2023-05-06T07:34:30.780Z,25.38
2023-05-06T07:35:32.702Z,25.86
2023-05-06T07:36:40.561Z,25.26
2023-05-06T07:37:42.547Z,23.94
2023-05-06T07:38:44.334Z,25.71
2023-05-06T07:39:46.243Z,25.14
2023-05-06T07:40:48.002Z,25.00
2023-05-06T07:41:52.747Z,26.55
2023-05-06T07:42:54.594Z,26.83
2023-05-06T07:43:56.351Z,26.15
2023-05-06T07:44:58.105Z,27.31
2023-05-06T07:46:03.093Z,26.86
2023-05-06T07:47:05.064Z,25.58
2023-05-06T07:48:07.136Z,23.20
2023-05-06T07:49:08.884Z,24.45
2023-05-06T07:50:10.954Z,24.61
2023-05-06T07:51:12.713Z,25.91
2023-05-06T07:52:14.418Z,27.79
2023-05-06T07:53:16.283Z,25.55
2023-05-06T07:54:18.024Z,24.85
2023-05-06T07:55:19.717Z,25.47
2023-05-06T07:56:21.438Z,28.02
2023-05-06T07:57:23.220Z,27.47
2023-05-06T07:58:24.982Z,28.42
2023-05-06T07:59:33.156Z,30.97
2023-05-06T08:00:34.827Z,29.66
2023-05-06T08:01:36.809Z,29.23
2023-05-06T08:02:39.508Z,27.40
2023-05-06T08:03:41.386Z,27.33
2023-05-06T08:04:43.391Z,27.89
2023-05-06T08:05:45.113Z,27.63
2023-05-06T08:06:46.792Z,29.07
2023-05-06T08:07:50.268Z,31.29
2023-05-06T08:08:52.013Z,29.33
2023-05-06T08:09:53.758Z,29.18
2023-05-06T08:10:56.384Z,28.94
2023-05-06T08:11:58.495Z,27.74
2023-05-06T08:13:00.456Z,27.23
2023-05-06T08:14:02.282Z,25.26
2023-05-06T08:15:04.251Z,26.55
2023-05-06T08:16:06.922Z,29.40
2023-05-06T08:17:09.022Z,25.56
2023-05-06T08:18:21.567Z,24.82
2023-05-06T08:19:24.410Z,25.90
2023-05-06T08:20:26.108Z,24.43
2023-05-06T08:21:27.903Z,24.26
2023-05-06T08:22:29.669Z,24.21
2023-05-06T08:23:31.992Z,24.17
2023-05-06T08:24:33.734Z,25.11
2023-05-06T08:25:35.455Z,24.95
2023-05-06T08:26:37.193Z,24.18
2023-05-06T08:27:39.781Z,24.32
2023-05-06T08:28:41.491Z,23.77
2023-05-06T08:29:43.195Z,24.77
2023-05-06T08:30:47.741Z,23.39
2023-05-06T08:31:49.521Z,25.61
2023-05-06T08:32:52.104Z,24.22
2023-05-06T08:33:54.769Z,24.39
2023-05-06T08:34:56.946Z,24.63
2023-05-06T08:35:59.231Z,23.78
2023-05-06T08:37:01.781Z,25.11
2023-05-06T08:38:04.001Z,25.97
2023-05-06T08:39:06.161Z,27.48
2023-05-06T08:40:20.589Z,26.30
2023-05-06T08:41:22.500Z,26.06
2023-05-06T08:42:26.548Z,24.10
2023-05-06T08:43:32.119Z,25.01
2023-05-06T08:44:33.862Z,24.00
2023-05-06T08:45:35.625Z,25.34
2023-05-06T08:46:37.381Z,25.72
2023-05-06T08:47:39.418Z,27.05
2023-05-06T08:48:41.714Z,26.66
2023-05-06T08:49:43.463Z,25.03
2023-05-06T08:50:45.259Z,24.67
2023-05-06T08:51:51.234Z,27.07
2023-05-06T08:52:53.067Z,27.20
2023-05-06T08:53:55.152Z,27.58
2023-05-06T08:55:01.545Z,28.33
2023-05-06T08:56:08.827Z,28.17
2023-05-06T08:57:12.780Z,29.37
2023-05-06T08:58:17.000Z,28.24
2023-05-06T08:59:23.730Z,28.16
2023-05-06T09:00:25.731Z,30.39
2023-05-06T09:01:28.149Z,29.43
2023-05-06T09:02:29.919Z,29.54
2023-05-06T09:03:32.067Z,28.28
2023-05-06T09:04:35.304Z,26.85
2023-05-06T09:05:36.997Z,26.45
2023-05-06T09:06:38.760Z,24.94
2023-05-06T09:07:41.137Z,27.51
2023-05-06T09:08:42.855Z,24.79
2023-05-06T09:09:44.559Z,24.05
2023-05-06T09:10:47.450Z,24.63
2023-05-06T09:11:55.295Z,24.21
2023-05-06T09:12:57.174Z,24.64
2023-05-06T09:14:16.175Z,24.31
2023-05-06T09:15:17.861Z,24.83
2023-05-06T09:16:30.214Z,25.36
2023-05-06T09:17:32.950Z,26.84
2023-05-06T09:18:39.593Z,26.72
2023-05-06T09:19:41.360Z,27.60
2023-05-06T09:20:45.580Z,25.93
2023-05-06T09:21:51.010Z,27.56
2023-05-06T09:22:53.993Z,26.51
2023-05-06T09:23:55.788Z,26.55
2023-05-06T09:24:58.859Z,28.95
2023-05-06T09:26:01.888Z,27.33
2023-05-06T09:27:04.140Z,25.53
2023-05-06T09:28:07.759Z,25.79
2023-05-06T09:29:09.974Z,24.96
2023-05-06T09:30:12.789Z,24.53
2023-05-06T09:31:16.085Z,25.52
2023-05-06T09:32:18.076Z,25.33
2023-05-06T09:33:19.790Z,25.50
2023-05-06T09:34:22.808Z,26.32
2023-05-06T09:35:28.640Z,27.27
2023-05-06T09:36:30.488Z,27.16
2023-05-06T09:37:32.181Z,27.06
2023-05-06T09:38:33.882Z,27.24
2023-05-06T09:39:35.684Z,26.93
2023-05-06T09:40:41.600Z,27.17
2023-05-06T09:41:43.692Z,27.48
2023-05-06T09:42:45.496Z,27.49
2023-05-06T09:43:49.243Z,28.53
2023-05-06T09:44:54.435Z,28.44
2023-05-06T09:45:56.308Z,28.79
2023-05-06T09:46:58.172Z,29.59
2023-05-06T09:48:01.104Z,30.15
2023-05-06T09:49:03.124Z,31.29
2023-05-06T09:50:05.437Z,29.28
2023-05-06T09:51:07.901Z,30.03
2023-05-06T09:52:10.162Z,29.73
2023-05-06T09:53:13.435Z,30.09
2023-05-06T09:54:17.537Z,30.52
2023-05-06T09:55:20.833Z,30.66
2023-05-06T09:56:23.618Z,31.51
2023-05-06T09:57:26.359Z,32.38
2023-05-06T09:58:30.654Z,32.69
2023-05-06T09:59:33.158Z,32.82
2023-05-06T10:00:36.460Z,32.39
2023-05-06T10:01:39.283Z,33.00
2023-05-06T10:02:42.262Z,33.42
2023-05-06T10:03:46.259Z,33.07
2023-05-06T10:04:49.700Z,32.25
2023-05-06T10:05:53.450Z,32.43
2023-05-06T10:06:56.773Z,33.61
2023-05-06T10:07:59.627Z,33.42
2023-05-06T10:09:02.022Z,32.27
2023-05-06T10:10:08.327Z,33.11
2023-05-06T10:11:10.203Z,31.96
2023-05-06T10:12:13.829Z,32.38
2023-05-06T10:13:16.675Z,33.71
2023-05-06T10:14:19.587Z,32.68
2023-05-06T10:15:21.980Z,32.13
2023-05-06T10:16:23.850Z,31.97
2023-05-06T10:17:26.908Z,32.62
2023-05-06T10:18:30.885Z,33.13
2023-05-06T10:19:33.957Z,33.84
2023-05-06T10:20:37.614Z,34.60
2023-05-06T10:21:43.740Z,34.14
2023-05-06T10:22:49.456Z,34.87
2023-05-06T10:23:57.597Z,34.07
2023-05-06T10:25:04.280Z,33.91
2023-05-06T10:26:12.213Z,33.49
2023-05-06T10:27:15.282Z,34.50
2023-05-06T10:28:27.915Z,35.62
2023-05-06T10:29:36.311Z,34.93
2023-05-06T10:30:40.038Z,35.30
2023-05-06T10:31:52.212Z,34.99
2023-05-06T10:32:58.975Z,34.71
2023-05-06T10:34:05.199Z,35.61
2023-05-06T10:35:15.528Z,34.00
2023-05-06T10:36:23.992Z,32.74
2023-05-06T10:37:28.684Z,32.97
2023-05-06T10:38:40.464Z,33.45
2023-05-06T10:39:43.563Z,34.60
2023-05-06T10:40:46.504Z,33.32
2023-05-06T10:41:48.760Z,33.43
2023-05-06T10:42:51.536Z,32.91
2023-05-06T10:43:57.176Z,32.15
2023-05-06T10:45:04.162Z,31.30
2023-05-06T10:46:06.485Z,32.55
2023-05-06T10:47:09.230Z,29.04
2023-05-06T10:48:11.015Z,30.33
2023-05-06T10:49:13.855Z,31.64
2023-05-06T10:50:23.783Z,30.66
2023-05-06T10:51:27.673Z,31.01
2023-05-06T10:52:47.117Z,30.09
2023-05-06T10:54:03.994Z,31.88
2023-05-06T10:55:27.541Z,30.08
2023-05-06T10:56:31.548Z,30.71
2023-05-06T10:57:41.315Z,29.89
2023-05-06T10:58:47.999Z,29.91
2023-05-06T10:59:49.779Z,30.22
2023-05-06T11:00:55.858Z,30.97
2023-05-06T11:02:09.723Z,29.88
2023-05-06T11:03:13.882Z,31.42
2023-05-06T11:04:18.992Z,31.14
2023-05-06T11:05:20.700Z,31.36
2023-05-06T11:06:52.400Z,32.31
2023-05-06T11:08:08.762Z,33.83
2023-05-06T11:09:21.742Z,31.93
2023-05-06T11:10:34.049Z,32.74
2023-05-06T11:12:01.890Z,32.05
2023-05-06T11:13:20.386Z,30.32
2023-05-06T11:14:36.882Z,31.03
2023-05-06T11:15:40.546Z,29.94
2023-05-06T11:16:52.249Z,30.50
2023-05-06T11:17:55.940Z,30.64
2023-05-06T11:18:58.248Z,31.49
2023-05-06T11:20:26.532Z,31.56
2023-05-06T11:21:31.151Z,31.52
2023-05-06T11:22:40.664Z,31.57
2023-05-06T11:23:42.680Z,32.34
2023-05-06T11:24:44.635Z,31.71
2023-05-06T11:25:47.807Z,32.04
2023-05-06T11:26:49.957Z,32.81
2023-05-06T11:27:51.683Z,32.96
2023-05-06T11:28:53.524Z,33.49
2023-05-06T11:29:55.787Z,33.70
2023-05-06T11:30:57.691Z,34.16
2023-05-06T11:31:59.681Z,33.87
2023-05-06T11:33:05.666Z,33.90
2023-05-06T11:34:09.794Z,33.40
2023-05-06T11:35:12.013Z,34.08
2023-05-06T11:36:18.711Z,33.02
2023-05-06T11:37:29.994Z,34.71
2023-05-06T11:38:46.394Z,35.96
2023-05-06T11:39:49.228Z,34.22
2023-05-06T11:40:51.017Z,33.96
2023-05-06T11:41:56.204Z,34.21
2023-05-06T11:43:13.829Z,33.86
2023-05-06T11:44:25.512Z,34.04
2023-05-06T11:45:39.552Z,34.53
2023-05-06T11:46:44.239Z,34.68
2023-05-06T11:47:46.071Z,36.52
2023-05-06T11:48:48.527Z,35.21
2023-05-06T11:49:55.688Z,34.09
2023-05-06T11:50:57.669Z,34.06
2023-05-06T11:51:59.486Z,32.58
2023-05-06T11:53:02.129Z,34.21
2023-05-06T11:54:08.185Z,33.73
2023-05-06T11:55:12.737Z,33.33
2023-05-06T11:56:14.805Z,33.44
2023-05-06T11:57:16.609Z,32.87
2023-05-06T11:58:28.421Z,31.92
2023-05-06T11:59:31.159Z,34.05
2023-05-06T12:00:33.458Z,33.17
2023-05-06T12:01:35.149Z,33.50
2023-05-06T12:02:36.949Z,32.29
2023-05-06T12:03:38.850Z,32.35
2023-05-06T12:04:43.313Z,33.16
2023-05-06T12:05:45.331Z,33.22
2023-05-06T12:06:47.148Z,34.17
2023-05-06T12:07:49.040Z,32.70
2023-05-06T12:08:50.799Z,32.01
2023-05-06T12:09:52.660Z,32.20
2023-05-06T12:10:57.077Z,31.95
2023-05-06T12:11:59.030Z,31.60
2023-05-06T12:13:01.024Z,32.90
2023-05-06T12:14:05.826Z,33.07
2023-05-06T12:15:08.333Z,32.71
2023-05-06T12:16:12.068Z,32.81
2023-05-06T12:17:14.904Z,33.03
2023-05-06T12:18:17.231Z,32.42
2023-05-06T12:19:19.009Z,34.49
2023-05-06T12:20:22.267Z,33.61
2023-05-06T12:21:24.458Z,33.58
2023-05-06T12:22:26.164Z,35.10
2023-05-06T12:23:27.997Z,33.22
2023-05-06T12:24:30.157Z,33.22
2023-05-06T12:25:31.951Z,35.36
2023-05-06T12:26:47.496Z,35.18
2023-05-06T12:27:49.271Z,35.03
2023-05-06T12:29:08.786Z,34.26
2023-05-06T12:30:11.654Z,34.36
2023-05-06T12:31:23.619Z,34.94
2023-05-06T12:32:28.169Z,35.99
2023-05-06T12:33:44.904Z,35.80
2023-05-06T12:34:46.597Z,35.48
2023-05-06T12:35:49.057Z,35.56
2023-05-06T12:36:51.281Z,36.22
2023-05-06T12:37:53.026Z,36.14
2023-05-06T12:38:55.927Z,35.35
2023-05-06T12:39:59.400Z,36.05
2023-05-06T12:41:04.499Z,35.17
2023-05-06T12:42:06.668Z,35.65
2023-05-06T12:43:09.077Z,36.36
2023-05-06T12:44:36.361Z,37.15
2023-05-06T12:45:39.891Z,37.49
2023-05-06T12:46:51.601Z,37.48
2023-05-06T12:47:58.531Z,37.61
2023-05-06T12:49:02.010Z,36.30
2023-05-06T12:50:03.960Z,36.51
2023-05-06T12:51:21.854Z,36.37
2023-05-06T12:52:25.385Z,35.96
2023-05-06T12:53:35.454Z,36.32
2023-05-06T12:54:37.796Z,36.00
2023-05-06T12:55:45.342Z,34.88
2023-05-06T12:56:47.095Z,35.45
2023-05-06T12:57:49.382Z,35.22
2023-05-06T12:59:01.822Z,35.13
2023-05-06T13:00:04.158Z,34.07
2023-05-06T13:01:07.786Z,35.49
2023-05-06T13:02:10.016Z,34.75
2023-05-06T13:03:13.511Z,35.68
2023-05-06T13:04:15.290Z,36.95
2023-05-06T13:05:16.995Z,37.09
2023-05-06T13:06:18.758Z,39.00
2023-05-06T13:07:20.502Z,37.06
2023-05-06T13:08:22.280Z,37.47
2023-05-06T13:09:24.647Z,33.76
2023-05-06T13:10:26.440Z,36.50
2023-05-06T13:11:28.145Z,34.16
2023-05-06T13:12:29.890Z,32.91
2023-05-06T13:13:31.583Z,33.86
2023-05-06T13:14:33.268Z,33.57
2023-05-06T13:15:35.186Z,33.55
2023-05-06T13:16:37.866Z,32.48
2023-05-06T13:17:39.681Z,32.18
2023-05-06T13:18:41.666Z,32.19
2023-05-06T13:19:43.445Z,31.48
2023-05-06T13:20:46.116Z,30.03
2023-05-06T13:21:48.140Z,30.39
2023-05-06T13:22:55.067Z,30.10
2023-05-06T13:23:57.113Z,29.17
2023-05-06T13:24:58.829Z,29.97
2023-05-06T13:26:05.260Z,29.76
2023-05-06T13:27:07.704Z,30.71
2023-05-06T13:28:12.443Z,30.26
2023-05-06T13:29:14.230Z,30.46
2023-05-06T13:30:17.005Z,30.44
2023-05-06T13:31:18.873Z,30.54
2023-05-06T13:32:20.982Z,29.89
2023-05-06T13:33:22.739Z,30.00
2023-05-06T13:34:24.684Z,30.31
2023-05-06T13:35:26.419Z,30.90
2023-05-06T13:36:28.195Z,31.05
2023-05-06T13:37:29.914Z,30.70